Tiempo atmosférico en la estación meteorológica de Puerto Alto del León, Madrid (1532 m.)



Fecha
DESCASC
Temp. máxima en grados centígrados (hora)
DESCASC
Temp. mínima en grados centígrados (hora)
DESCASC
Temp. media en grados centígrados
DESCASC
Racha de viento máxima en m/sg (hora)
DESCASC
Velocidad máxima media en intervalos de 10 minutos(hora)
DESCASC
Precipitaciones diarias en mm
DESCASC
Precipitaciones de 00:00 a 06:00 en mm
DESCASC
Precipitaciones de 06:00 a 12:00 en mm
DESCASC
Precipitaciones de 12:00 a 18:00 en mm
DESCASC
Precipitaciones de 18:00 a 24:00 en mm
DESCASC
10-07-2020 26 (19:20) 13.2 (06:10) 19.6 6.67 (13:00) 4.17 (00:50) 0 0 0 0 0
09-07-2020 26.5 (15:30) 14.3 (23:10) 20.4 15.56 (21:30) 8.61 (21:40) 0 0 0 0 0
08-07-2020 28.6 (16:40) 13.1 (07:50) 20.9 15.83 (16:20) 7.5 (14:40) 7.3 0 2.2 0 5.1
07-07-2020 31.2 (17:20) 16.7 (06:50) 24 11.39 (19:50) 6.94 (19:40) 0 0 0 0 0
06-07-2020 29.6 (17:10) 18.2 (00:00) 23.9 17.5 (16:50) 5.83 (16:00) 0 0 0 0 0
05-07-2020 29.4 (17:50) 15.2 (00:00) 22.3 9.72 (16:50) 5.56 (17:00) 0 0 0 0 0
04-07-2020 26.9 (17:00) 12.6 (00:00) 19.8 10 (14:10) 5.83 (14:10) 0 0 0 0 0
03-07-2020 24.5 (16:20) 7.7 (05:40) 16.1 11.67 (00:30) 8.61 (00:30) 0 0 0 0 0
02-07-2020 24.4 (16:30) 10.6 (00:00) 17.5 12.5 (22:50) 8.61 (23:10) 0 0 0 0 0
01-07-2020 27.2 (17:10) 14.3 (00:00) 20.8 13.33 (18:20) 8.61 (18:20) 0 0 0 0 0
30-06-2020 29.7 (16:50) 17.8 (00:00) 23.8 11.67 (17:10) 5 (19:10) 0 0 0 0 0
29-06-2020 29.3 (18:20) 12.2 (00:00) 20.7 10.28 (02:20) 7.78 (01:40) 0 0 0 0 0
28-06-2020 26.5 (18:00) 11.4 (00:00) 18.9 10.83 (02:30) 7.78 (02:30) 0 0 0 0 0
27-06-2020 -- (--) -- (--) -- -- (--) -- (--) -- -- 0 0 0
26-06-2020 23.9 (17:10) 13.3 (00:00) 18.6 13.89 (12:30) 7.78 (22:20) 0 0 0 0 0
25-06-2020 26.7 (16:00) 14.8 (00:00) 20.8 14.72 (17:50) 6.94 (06:00) 0 0 0 0 0
24-06-2020 23.7 (15:30) 15.4 (00:00) 19.6 12.22 (15:40) 7.22 (15:40) 0.5 0 0.3 0.2 0
23-06-2020 28 (17:00) 16.1 (00:00) 22.1 8.89 (03:00) 5.28 (02:50) 0 0 0 0 0
22-06-2020 26.9 (18:00) 14 (00:00) 20.4 7.5 (12:40) 5.28 (00:30) 0 0 0 0 0
21-06-2020 24.8 (18:30) 9.8 (00:00) 17.3 9.44 (02:20) 6.67 (00:20) 0 0 0 0 0
20-06-2020 25 (17:50) 9 (00:00) 17 9.72 (19:40) 6.39 (01:10) 0 0 0 0 0
19-06-2020 22.8 (17:20) 7.5 (00:00) 15.1 13.89 (22:00) 5.83 (02:40) 0 0 0 0 0
18-06-2020 20.2 (19:10) 6.4 (00:00) 13.3 10 (18:30) 5.83 (18:30) 0 0 0 0 0
17-06-2020 17.5 (18:10) 4.6 (00:00) 11 11.94 (01:20) 8.33 (01:20) 0 0 0 0 0
16-06-2020 16.1 (16:30) 6.7 (00:00) 11.4 16.39 (18:30) 10.28 (18:30) 0 0 0 0 0
15-06-2020 19.1 (17:20) 6.9 (00:00) 13 13.33 (23:30) 9.17 (23:20) 0 0 0 0 0

Gráficas

Temp. máximas Temp. mínimas Temp. medias Precipitaciones Rachas de viento máximas Velocidades máximas media en intervalos de 10 minutos

Datos horarios

Fecha y hora oficial Temperatura (ºC) Velocidad del viento (km/h) Dirección del viento Racha (km/h) Dirección de racha Precipitación (mm) Presión (hPa) Tendencia (hPa) Humedad (%)
2020-07-14 23:00:00 18.1 7 Este 21 Este 0 850.3 1.5 24
2020-07-14 22:00:00 19.1 4 Noroeste 19 Noroeste 0 849.8 1.3 22
2020-07-14 21:00:00 21.8 13 Noroeste 31 Noroeste 0 849.4 0.6 19
2020-07-14 20:00:00 23.7 19 Noroeste 36 Noroeste 0 848.8 -0.5 18
2020-07-14 19:00:00 25 13 Norte 28 Noroeste 0 848.5 -1.3 17
2020-07-14 18:00:00 24.8 15 Noroeste 35 Oeste 0 848.8 -1.3 18
2020-07-14 17:00:00 24.6 19 Noroeste 35 Oeste 0 849.3 -1.2 19
2020-07-14 16:00:00 24.1 15 Noroeste 36 Oeste 0 849.8 -1 18
2020-07-14 15:00:00 23.4 19 Oeste 34 Oeste 0 850.1 -1 20
2020-07-14 14:00:00 22 17 Noroeste 27 Oeste 0 850.5 -0.6 20
2020-07-14 13:00:00 21.1 13 Oeste 26 Oeste 0 850.8 -0.3 21
2020-07-14 12:00:00 19.9 18 Noroeste 30 Noroeste 0 851.1 -0.4 22
2020-07-14 11:00:00 18.1 13 Noroeste 19 Noroeste 0 851.1 -0.6 29
2020-07-14 10:00:00 16.1 3 Oeste 14 Noroeste 0 851.1 -0.9 37
2020-07-14 09:00:00 14 12 Oeste 16 Oeste 0 851.5 -0.6 42
2020-07-14 08:00:00 14 5 Noroeste 8 Noroeste 0 851.7 -0.4 43
2020-07-14 07:00:00 13.7 5 Noroeste 10 Oeste 0 852 -0.9 47
2020-07-14 06:00:00 13.2 9 Oeste 14 Noroeste 0 852.1 -- 53
2020-07-14 05:00:00 14.8 5 Este 12 Este 0 852.1 -- 54
2020-07-14 04:00:00 15.6 6 Oeste 21 Oeste 0 852.9 -- 47
2020-07-14 03:00:00 12.5 17 Oeste 21 Oeste 0 853 -- 60
2020-07-14 02:00:00 14.2 16 Oeste 31 Noroeste 0 853.3 -- 53
2020-07-14 01:00:00 15.3 22 Noroeste 37 Oeste 0 853.5 -- 49
2020-07-14 00:00:00 16.6 22 Oeste 32 Oeste 0 853.7 -- 44
2020-07-13 23:00:00 17.8 17 Noroeste 33 Noroeste 0 853.6 -- 40
2020-07-13 22:00:00 19.7 16 Noroeste 31 Noroeste 0 852.8 0.2 35
2020-07-13 21:00:00 23.3 16 Noroeste 32 Noroeste 0 852.7 -0.3 28
2020-07-13 20:00:00 25.1 15 Noroeste 30 Oeste 0 852.6 -0.7 25
2020-07-13 19:00:00 25.6 16 Noroeste 31 Noroeste 0 852.6 -1.2 26
2020-07-13 18:00:00 25.4 17 Noroeste 31 Noroeste 0 853 -0.9 28
2020-07-13 17:00:00 26.2 14 Noroeste 29 Oeste 0 853.3 -1 29
2020-07-13 16:00:00 25.3 16 Noroeste 30 Oeste 0 853.8 -0.6 31
2020-07-13 15:00:00 25.1 12 Noroeste 27 Noroeste 0 853.9 -0.6 32
2020-07-13 14:00:00 24 17 Noroeste 30 Noroeste 0 854.3 0.2 34
2020-07-13 13:00:00 21.9 16 Oeste 29 Oeste 0 854.4 0.1 37
2020-07-13 12:00:00 20.8 14 Noroeste 25 Oeste 0 854.5 0.5 39
2020-07-13 11:00:00 20.1 16 Oeste 25 Oeste 0 854.1 0.3 43
2020-07-13 10:00:00 17.9 16 Oeste 23 Noroeste 0 854.3 0.9 49
2020-07-13 09:00:00 15.9 12 Noroeste 19 Oeste 0 854 0.9 53
2020-07-13 08:00:00 15.7 3 Oeste 7 Este 0 853.8 0.7 54
2020-07-13 07:00:00 15 6 Este 9 Este 0 853.4 -- 53
2020-07-13 06:00:00 15.3 8 Sudeste 14 Sudeste 0 853.1 -0.5 50
2020-07-13 05:00:00 15.2 10 Este 16 Este 0 853.1 -0.6 50
2020-07-13 04:00:00 15.5 13 Sudeste 19 Sudeste 0 853.3 -0.3 50
2020-07-13 03:00:00 15.9 14 Sudeste 20 Sudeste 0 853.6 0 53
2020-07-13 02:00:00 16 12 Este 21 Este 0 853.7 0.2 53
2020-07-13 01:00:00 16.2 14 Sudeste 20 Este 0 853.6 0.5 54
2020-07-13 00:00:00 16.2 14 Sudeste 20 Sudeste 0 853.6 0.9 55
2020-07-12 23:00:00 16.2 12 Sudeste 22 Sudeste 0 853.5 1.3 56
2020-07-12 22:00:00 17.3 16 Sudeste 27 Sudeste 0 853.1 1.5 52
2020-07-12 21:00:00 19.4 11 Este 25 Este 0 852.7 1.1 38
2020-07-12 20:00:00 21.7 3 Nordeste 22 Oeste 0 852.2 0.2 33
2020-07-12 19:00:00 20.7 14 Noroeste 37 Noroeste 0 851.6 -0.4 34
2020-07-12 18:00:00 22.3 16 Noroeste 24 Noroeste 0 851.6 -0.4 34
2020-07-12 17:00:00 19.3 16 Noroeste 25 Noroeste 0 852 0 40
2020-07-12 16:00:00 21.6 0 Calma 22 Este 0 852 -0.1 34
2020-07-12 15:00:00 23.3 11 Sudeste 24 Este 0 852 -- 32
2020-07-12 14:00:00 21.9 14 Este 32 Este 0 852 0.4 36
2020-07-12 13:00:00 21.8 16 Este 32 Este 0 852.1 -- 40
2020-07-12 12:00:00 20.7 17 Sudeste 36 Este 0 851.8 -- 46
2020-07-12 11:00:00 19.2 22 Sudeste 39 Este 0 851.6 -- 52
2020-07-12 10:00:00 18.3 21 Este 36 Sudeste 0 851.8 0.6 60
2020-07-12 09:00:00 16 19 Sudeste 30 Este 0 851.5 -- 68
2020-07-12 08:00:00 15.8 14 Este 21 Sudeste 0 851.1 -- 68
2020-07-12 07:00:00 15.4 9 Oeste 46 Noroeste 0.1 851.2 -- 57
2020-07-12 06:00:00 16 20 Sudeste 35 Este 0.6 851.2 -- 74
2020-07-12 05:00:00 13.7 10 Oeste 20 Este 0 851.2 -- 74
2020-07-12 04:00:00 17.1 15 Este 32 Este 0 851.2 -- 63
2020-07-12 03:00:00 17.8 21 Sudeste 32 Este 0 851 -- 57
2020-07-12 02:00:00 18.5 21 Sudeste 46 Este 0 850.5 -- 50
2020-07-12 01:00:00 19.9 23 Sudeste 40 Este 0 850.9 -- 45
2020-07-12 00:00:00 20.4 21 Este 37 Sudeste 0 851 -- 40
2020-07-11 23:00:00 21.8 19 Sudeste 36 Sudeste 0 850.9 -- 34
2020-07-11 22:00:00 22.9 9 Sudeste 21 Sudeste 0 850.6 -- 27
2020-07-11 21:00:00 25.1 8 Sudeste 16 Sudeste 0 850.6 -- 25
2020-07-11 20:00:00 26.2 12 Sudeste 20 Sudeste 0 850.5 -- 23
2020-07-11 19:00:00 27.3 7 Sudeste 24 Sudeste 0 851 -0.8 23
2020-07-11 18:00:00 27.4 11 Sudeste 27 Sudeste 0 851.4 -- 23
2020-07-11 17:00:00 27.5 10 Sudeste 24 Sudeste 0 851.4 -- 22
2020-07-11 16:00:00 26.5 11 Este 33 Sudeste 0 851.8 -- 25
2020-07-11 15:00:00 26.4 15 Este 30 Sudeste 0 851.8 -- 27
2020-07-11 14:00:00 25.7 15 Este 32 Este 0 852.3 -- 29
2020-07-11 13:00:00 24.4 15 Este 30 Este 0 852.3 -- 33
2020-07-11 12:00:00 23.8 12 Este 27 Este 0 852.3 -- 39
2020-07-11 11:00:00 21.8 14 Este 25 Este 0 852.1 -- 45
2020-07-11 10:00:00 20.4 14 Este 21 Este 0 852 -- 50
2020-07-11 09:00:00 19.1 11 Este 20 Sudeste 0 851.9 -- 52
2020-07-11 08:00:00 17.2 13 Sudeste 18 Sudeste 0 851.6 -- 54
2020-07-11 07:00:00 15.8 13 Sudeste 18 Sudeste 0 851.2 -- 55
2020-07-11 06:00:00 15.7 13 Sudeste 23 Este 0 851 -- 54
2020-07-11 05:00:00 16.5 16 Sudeste 23 Sudeste 0 850.9 -- 50
2020-07-11 04:00:00 16.6 15 Sudeste 27 Sudeste 0 851.1 -- 49
2020-07-11 03:00:00 18.1 12 Sudeste 16 Sudeste 0 851.1 -- 42
2020-07-11 02:00:00 18.2 9 Sudeste 15 Sudeste 0 851.1 0.2 39
2020-07-11 01:00:00 19.2 10 Sudeste 22 Este 0 851.4 -- 35
2020-07-11 00:00:00 19.4 0 Calma 5 Este 0 851 -- 36
2020-07-10 23:00:00 20.3 5 Sudeste 7 Sudeste 0 850.9 -- 34
2020-07-10 22:00:00 21 3 Este 7 Nordeste 0 850.3 -- 31
2020-07-10 21:00:00 23.9 4 Este 10 Este 0 850.3 -- 28
2020-07-10 20:00:00 24.6 8 Este 17 Sudeste 0 849.9 -- 28
2020-07-10 19:00:00 25 8 Sudeste 18 Sudeste 0 849.8 -- 28
2020-07-10 18:00:00 24.6 7 Sudeste 16 Sudeste 0 849.9 -- 29
2020-07-10 17:00:00 22.9 7 Sudeste 21 Sudeste 0 850.2 -- 31
2020-07-10 16:00:00 23.2 6 Sudeste 17 Este 0 850.2 -- 32
2020-07-10 15:00:00 22.8 5 Sudeste 17 Sudeste 0 850.7 -- 32
2020-07-10 14:00:00 21.3 8 Este 24 Este 0 850.8 0.2 34
2020-07-10 13:00:00 22.1 8 Sudeste 24 Sudeste 0 850.6 -- 34
2020-07-10 12:00:00 19.9 10 Este 20 Este 0 850.7 -- 35
2020-07-10 11:00:00 20.2 7 Este 15 Este 0 850.6 0.1 38
2020-07-10 10:00:00 18.8 8 Este 15 Este 0 850.4 -- 41
2020-07-10 09:00:00 17.2 8 Sudeste 14 Este 0 850.4 -- 43
2020-07-10 08:00:00 15.1 6 Sudeste 14 Sudeste 0 850.5 -- 47
2020-07-10 07:00:00 13.8 9 Sudeste 13 Sudeste 0 850.4 -- 48
2020-07-10 06:00:00 13.5 9 Sudeste 15 Sudeste 0 850.1 -- 49
2020-07-10 05:00:00 13.7 9 Sudeste 18 Sudeste 0 850.6 -- 48
2020-07-10 04:00:00 15.2 14 Sudeste 21 Este 0 850.8 -- 42
2020-07-10 03:00:00 17.2 3 Oeste 11 Sudeste 0 850.9 -- 38
2020-07-10 02:00:00 14.7 10 Sudeste 20 Sudeste 0 851.1 -- 46
2020-07-10 01:00:00 14.6 15 Sudeste 23 Este 0 851.7 -- 47
2020-07-10 00:00:00 15.1 16 Sudeste 27 Sudeste 0 851.8 -- 48
2020-07-09 23:00:00 14.4 19 Sudeste 35 Este 0 851.7 -- 53
2020-07-09 22:00:00 15.4 26 Este 56 Sudeste 0 851.7 -- 51
2020-07-09 21:00:00 19.4 17 Este 27 Este 0 851 -- 35
2020-07-09 20:00:00 20.6 15 Sudeste 30 Sudeste 0 850.7 -- 33
2020-07-09 19:00:00 22.2 11 Este 25 Sudeste 0 850.6 -- 30
2020-07-09 18:00:00 20.9 14 Este 30 Este 0 851.1 -- 32
2020-07-09 17:00:00 23.7 13 Este 26 Este 0 851 -- 24
2020-07-09 16:00:00 23.8 6 Sur 28 Sudeste 0 851 -- 24
2020-07-09 15:00:00 25.8 7 Este 22 Sudeste 0 851.7 -- 24
2020-07-09 14:00:00 24.3 10 Este 22 Sudeste 0 852.1 -- 31
2020-07-09 13:00:00 22.7 14 Este 24 Este 0 852.1 -- 35
2020-07-09 12:00:00 21.6 9 Este 20 Este 0 852.1 -- 41
2020-07-09 11:00:00 18.9 14 Este 26 Sudeste 0 852.1 -- 46
2020-07-09 10:00:00 18.6 15 Sudeste 27 Sudeste 0 851.7 -- 48
2020-07-09 09:00:00 17.6 18 Sudeste 31 Este 0 851.3 -- 52
2020-07-09 08:00:00 16.1 17 Este 38 Sudeste 0 851.2 -- 43
2020-07-09 07:00:00 15.5 18 Sudeste 28 Este 0 850.7 -- 47
2020-07-09 06:00:00 15.3 17 Este 33 Este 0 850.5 -- 45
2020-07-09 05:00:00 16.3 17 Sudeste 31 Este 0 850.4 -- 41
2020-07-09 04:00:00 16.8 18 Sudeste 30 Sudeste 0 850.1 -- 40
2020-07-09 03:00:00 17.3 18 Sudeste 30 Este 0 850.3 -- 40
2020-07-09 02:00:00 17.5 16 Sudeste 33 Este 0 850.8 -- 40
2020-07-09 01:00:00 17.5 16 Este 31 Sudeste 0 851 -- 42
2020-07-09 00:00:00 18.1 17 Este 27 Este 0 850.9 -- 43
2020-07-08 23:00:00 18.1 9 Este 17 Este 0 851.1 -- 48
2020-07-08 22:00:00 17.3 8 Noroeste 27 Este 0.3 850.7 -- 55
2020-07-08 21:00:00 18.7 2 Noroeste 25 Oeste 0.1 849.9 -- 49
2020-07-08 20:00:00 16.2 12 Noroeste 33 Sudeste 2.2 849.2 -- 67
2020-07-08 19:00:00 18.6 15 Sudeste 56 Sur 2.5 848.6 -- 47
2020-07-08 18:00:00 24.8 13 Sudeste 50 Sudeste 0 849 -- 22
2020-07-08 17:00:00 25.8 24 Sudeste 57 Este 0 849.1 -- 20
2020-07-08 16:00:00 28 25 Este 50 Este 0 849.5 -- 20
2020-07-08 15:00:00 27.2 26 Este 47 Este 0 849.7 -- 21
2020-07-08 14:00:00 24 21 Este 42 Sudeste 0 850.3 -- 25
2020-07-08 13:00:00 25.8 19 Este 35 Sudeste 0 850.9 -- 25
2020-07-08 12:00:00 24 20 Este 35 Este 0 850.8 -- 26
2020-07-08 11:00:00 22.7 21 Este 37 Sudeste 0 850.7 -- 30
2020-07-08 10:00:00 20.7 23 Sudeste 38 Este 0 850.7 -- 33
2020-07-08 09:00:00 17.5 16 Este 37 Sudeste 0 850.5 -- 43
2020-07-08 08:00:00 14.2 13 Noroeste 46 Oeste 2.2 852 -- 61
2020-07-08 07:00:00 19.1 15 Sudeste 27 Sudeste 0 850.6 -- 25
2020-07-08 06:00:00 23.7 5 Sur 15 Sudoeste 0 850.5 -- 18
2020-07-08 05:00:00 22.8 7 Este 22 Sudoeste 0 850.1 -- 19
2020-07-08 04:00:00 23.4 11 Oeste 23 Oeste 0 850.7 -- 19
2020-07-08 03:00:00 23.5 10 Oeste 15 Oeste 0 851.1 -- 20
2020-07-08 02:00:00 21.6 11 Oeste 15 Oeste 0 851.5 -- 22
2020-07-08 01:00:00 21.2 12 Noroeste 21 Oeste 0 851.6 -- 21
2020-07-08 00:00:00 22 15 Oeste 21 Noroeste 0 851.9 -- 20
2020-07-07 23:00:00 22.4 16 Noroeste 26 Oeste 0 851.9 -- 20
2020-07-07 22:00:00 24.1 17 Oeste 30 Oeste 0 851.2 -- 18
2020-07-07 21:00:00 26.7 20 Noroeste 41 Noroeste 0 851 -- 14
2020-07-07 20:00:00 29 24 Noroeste 41 Noroeste 0 850.7 -0.7 14
2020-07-07 19:00:00 30.8 11 Oeste 26 Oeste 0 850.7 -0.9 19
2020-07-07 18:00:00 29.6 8 Noroeste 30 Noroeste 0 851.2 -0.7 21
2020-07-07 17:00:00 30.6 6 Noroeste 22 Noroeste 0 851.4 -0.8 20
2020-07-07 16:00:00 29.6 7 Sudeste 25 Este 0 851.6 -0.9 21
2020-07-07 15:00:00 28 8 Este 27 Sudeste 0 851.9 -0.7 22
2020-07-07 14:00:00 27.9 11 Este 28 Sudeste 0 852.2 -0.1 27
2020-07-07 13:00:00 25.8 10 Este 24 Este 0 852.5 0.1 30
2020-07-07 12:00:00 24.4 12 Este 23 Este 0 852.6 0.4 33
2020-07-07 11:00:00 23.7 10 Este 18 Este 0 852.3 0.3 35
2020-07-07 10:00:00 22.9 9 Este 16 Este 0 852.4 0.5 38
2020-07-07 09:00:00 21.6 9 Este 13 Este 0 852.2 0.2 40
2020-07-07 08:00:00 19.4 8 Este 16 Este 0 852 -0.2 43
2020-07-07 07:00:00 17.1 11 Sudeste 19 Sudeste 0 851.9 -- 45
2020-07-07 06:00:00 17.6 11 Sudeste 19 Este 0 852 -- 44
2020-07-07 05:00:00 16.9 12 Sudeste 17 Este 0 852.2 -- 46
2020-07-07 04:00:00 18.3 12 Noroeste 16 Oeste 0 852.1 -- 43
2020-07-07 03:00:00 18.2 12 Noroeste 15 Oeste 0 852.3 -- 43
2020-07-07 02:00:00 17.9 13 Noroeste 20 Oeste 0 852.7 -- 43
2020-07-07 01:00:00 18.1 17 Noroeste 23 Oeste 0 852.9 -- 42
2020-07-07 00:00:00 18.2 19 Noroeste 28 Oeste 0 853 -- 40
2020-07-06 23:00:00 19.9 20 Oeste 33 Noroeste 0 853.1 -- 37
2020-07-06 22:00:00 21.5 16 Noroeste 27 Noroeste 0 852.5 -- 33
2020-07-06 21:00:00 25 13 Noroeste 27 Noroeste 0 852.4 -- 29
2020-07-06 20:00:00 26.6 15 Noroeste 34 Noroeste 0 852.5 -- 26
2020-07-06 19:00:00 27.6 19 Noroeste 33 Noroeste 0 852.7 -- 25
2020-07-06 18:00:00 27.8 13 Oeste 32 Oeste 0 853.1 -- 24
2020-07-06 17:00:00 28.4 15 Noroeste 63 Noroeste 0 853 -- 24
2020-07-06 16:00:00 28.5 21 Noroeste 34 Oeste 0 853.3 -- 25
2020-07-06 15:00:00 26.5 17 Noroeste 37 Oeste 0 853.7 -- 24
2020-07-06 14:00:00 26.2 18 Noroeste 35 Oeste 0 853.8 -- 25
2020-07-06 13:00:00 25.9 14 Noroeste 31 Oeste 0 854 -- 26
2020-07-06 12:00:00 25.4 15 Noroeste 26 Oeste 0 853.8 -- 28
2020-07-06 11:00:00 23.5 9 Noroeste 16 Noroeste 0 854.1 -- 29
2020-07-06 10:00:00 21.8 9 Noroeste 14 Noroeste 0 853.9 -- 30
2020-07-06 09:00:00 20.1 4 Noroeste 8 Noroeste 0 854 -- 31
2020-07-06 08:00:00 19.5 3 Noroeste 6 Oeste 0 853.8 -- 29
2020-07-06 07:00:00 18.9 3 Oeste 11 Oeste 0 853.5 -- 29
2020-07-06 06:00:00 18.8 9 Oeste 13 Oeste 0 853.1 -- 29
2020-07-06 05:00:00 19 8 Oeste 12 Oeste 0 853.4 -- 28
2020-07-06 04:00:00 18.8 10 Oeste 14 Noroeste 0 853.5 -- 27
2020-07-06 03:00:00 19.3 12 Oeste 17 Oeste 0 854 -- 26
2020-07-06 02:00:00 19.6 13 Oeste 18 Noroeste 0 854.4 -- 25
2020-07-06 01:00:00 19.9 13 Noroeste 24 Oeste 0 854.6 -- 24
2020-07-06 00:00:00 20.6 15 Noroeste 22 Noroeste 0 854.5 -- 23
2020-07-05 23:00:00 20.8 15 Noroeste 21 Oeste 0 854.4 -- 23
2020-07-05 22:00:00 22 16 Noroeste 24 Noroeste 0 854.1 -- 20
2020-07-05 21:00:00 25.9 14 Noroeste 24 Noroeste 0 853.9 -- 16
2020-07-05 20:00:00 27.7 14 Noroeste 28 Noroeste 0 854 -- 14
2020-07-05 19:00:00 28.1 14 Noroeste 27 Oeste 0 854 -- 14
2020-07-05 18:00:00 29.4 6 Norte 33 Noroeste 0 854.2 -- 14
2020-07-05 17:00:00 28.1 20 Noroeste 35 Noroeste 0 854.6 -- 14
2020-07-05 16:00:00 27.9 12 Noroeste 34 Este 0 854.9 -- 15
2020-07-05 15:00:00 26.6 10 Sudeste 23 Este 0 855.1 -- 18
2020-07-05 14:00:00 26.7 10 Sudeste 25 Sudeste 0 855.5 -- 18
2020-07-05 13:00:00 26.2 9 Este 21 Este 0 855.9 -- 18
2020-07-05 12:00:00 24.7 5 Este 17 Este 0 856.1 -- 19
2020-07-05 11:00:00 23 8 Este 16 Este 0 856.1 -- 21
2020-07-05 10:00:00 21.6 9 Este 15 Este 0 856.1 -- 22
2020-07-05 09:00:00 20.2 10 Sudeste 17 Sudeste 0 855.9 -- 24
2020-07-05 08:00:00 18.5 12 Sudeste 16 Este 0 855.7 -- 25
2020-07-05 07:00:00 16.2 12 Sudeste 17 Sudeste 0 855.6 -- 26
2020-07-05 06:00:00 15.7 14 Sudeste 24 Sudeste 0 855.6 -- 27
2020-07-05 05:00:00 16.3 12 Sudeste 18 Sudeste 0 855.8 -- 22
2020-07-05 04:00:00 17.7 6 Sudeste 10 Este 0 855.9 -- 19
2020-07-05 03:00:00 18.4 6 Sudeste 9 Sudeste 0 856.2 -- 19
2020-07-05 02:00:00 17.8 5 Oeste 9 Noroeste 0 856.4 -- 17
2020-07-05 01:00:00 19.1 6 Noroeste 13 Noroeste 0 856.3 -- 16
2020-07-05 00:00:00 18.8 10 Noroeste 14 Oeste 0 856.3 -- 17
2020-07-04 23:00:00 19.3 9 Noroeste 20 Oeste 0 856.1 -- 18
2020-07-04 22:00:00 19.4 12 Noroeste 21 Noroeste 0 855.6 -- 18
2020-07-04 21:00:00 23.8 14 Noroeste 22 Noroeste 0 855.5 -- 14
2020-07-04 20:00:00 25.3 14 Noroeste 60 Noroeste 0 855.2 -- 14
2020-07-04 19:00:00 25.8 12 Oeste 27 Oeste 0 855.2 -- 14
2020-07-04 18:00:00 25.8 13 Noroeste 33 Noroeste 0 855.4 -- 14
2020-07-04 17:00:00 25.5 15 Oeste 34 Noroeste 0 855.6 -- 15
2020-07-04 16:00:00 25 17 Noroeste 33 Noroeste 0 855.8 -- 16
2020-07-04 15:00:00 24.1 17 Oeste 36 Noroeste 0 856 -- 20
2020-07-04 14:00:00 23.7 16 Oeste 32 Oeste 0 856.2 -- 21
2020-07-04 13:00:00 22.1 15 Noroeste 29 Noroeste 0 856.4 -- 23
2020-07-04 12:00:00 21.1 12 Noroeste 21 Noroeste 0 856.2 -- 24
2020-07-04 11:00:00 18.9 9 Oeste 19 Oeste 0 855.9 -- 27
2020-07-04 10:00:00 16.9 10 Noroeste 19 Oeste 0 855.8 -- 31
2020-07-04 09:00:00 15.2 12 Noroeste 21 Oeste 0 855.6 -- 32
2020-07-04 08:00:00 13.2 13 Noroeste 21 Oeste 0 855.2 -- 33
2020-07-04 07:00:00 13.2 15 Oeste 26 Oeste 0 854.8 -- 33
2020-07-04 06:00:00 14.2 18 Oeste 27 Oeste 0 854.5 -- 33
2020-07-04 05:00:00 14.1 18 Oeste 26 Oeste 0 854.5 -- 33
2020-07-04 04:00:00 13 19 Noroeste 26 Noroeste 0 854.8 -- 34
2020-07-04 03:00:00 13.1 18 Noroeste 25 Oeste 0 854.9 -- 35
2020-07-04 02:00:00 13.3 17 Noroeste 26 Oeste 0 854.9 -- 36
2020-07-04 01:00:00 13.1 20 Noroeste 24 Noroeste 0 855 -- 35
2020-07-04 00:00:00 14.4 18 Noroeste 23 Oeste 0 854.7 -- 32
2020-07-03 23:00:00 16.1 15 Noroeste 24 Oeste 0 854.5 -- 29
2020-07-03 22:00:00 17.8 17 Noroeste 29 Noroeste 0 854 -- 25
2020-07-03 21:00:00 21.1 17 Noroeste 33 Noroeste 0 853.6 -- 18
2020-07-03 20:00:00 22.4 20 Noroeste 36 Noroeste 0 853.4 -- 15
2020-07-03 19:00:00 23.2 18 Noroeste 34 Noroeste 0 853.3 -- 15
2020-07-03 18:00:00 23.3 18 Noroeste 30 Oeste 0 853.1 -- 14
2020-07-03 17:00:00 23.3 17 Noroeste 31 Oeste 0 853.3 -- 16
2020-07-03 16:00:00 21.9 17 Noroeste 29 Oeste 0 853.3 -- 20
2020-07-03 15:00:00 21.4 17 Noroeste 27 Noroeste 0 853.3 -- 26
2020-07-03 14:00:00 19.6 15 Oeste 28 Oeste 0 853.5 -- 29
2020-07-03 13:00:00 18.7 15 Noroeste 25 Noroeste 0 853.4 -- 32
2020-07-03 12:00:00 17.6 14 Oeste 23 Noroeste 0 853.1 -- 36
2020-07-03 11:00:00 16.6 9 Noroeste 14 Noroeste 0 852.7 -- 39
2020-07-03 10:00:00 14.2 8 Noroeste 13 Oeste 0 852.6 -- 51
2020-07-03 09:00:00 11.1 10 Noroeste 18 Oeste 0 852.5 -- 61
2020-07-03 08:00:00 9 13 Oeste 19 Oeste 0 852 -- 65
2020-07-03 07:00:00 8.1 15 Noroeste 24 Oeste 0 851.7 -- 64
2020-07-03 06:00:00 8.1 18 Noroeste 24 Oeste 0 851.5 -- 64
2020-07-03 05:00:00 8.9 17 Noroeste 23 Noroeste 0 851.4 -- 54
2020-07-03 04:00:00 9.9 18 Noroeste 39 Oeste 0 851.3 -- 47
2020-07-03 03:00:00 11.2 25 Oeste 37 Oeste 0 851.3 -- 40
2020-07-03 02:00:00 11.8 26 Noroeste 36 Oeste 0 851.4 -- 36
2020-07-03 01:00:00 12.7 25 Oeste 42 Oeste 0 851.8 -- 34
2020-07-03 00:00:00 13.8 29 Noroeste 42 Noroeste 0 851.4 -- 33
2020-07-02 23:00:00 15 30 Noroeste 45 Noroeste 0 850.9 -- 30
2020-07-02 22:00:00 16.9 27 Noroeste 41 Noroeste 0 850.6 -- 28
2020-07-02 21:00:00 18.1 26 Noroeste 42 Noroeste 0 850.2 -- 28
2020-07-02 20:00:00 21.6 22 Noroeste 36 Noroeste 0 849.9 -- 28
2020-07-02 19:00:00 20.8 15 Noroeste 30 Noroeste 0 850 -- 29
2020-07-02 18:00:00 20.6 16 Noroeste 40 Noroeste 0 850 -- 28
2020-07-02 17:00:00 23.1 21 Noroeste 39 Noroeste 0 849.8 -- 24
2020-07-02 16:00:00 21.8 19 Noroeste 36 Noroeste 0 850.2 -- 28
2020-07-02 15:00:00 23 17 Noroeste 36 Noroeste 0 850.2 -- 28
2020-07-02 14:00:00 21.8 20 Noroeste 35 Noroeste 0 850.6 -- 28
2020-07-02 13:00:00 21.4 12 Noroeste 30 Noroeste 0 850.6 -- 33
2020-07-02 12:00:00 19 16 Oeste 28 Oeste 0 850.5 -- 41
2020-07-02 11:00:00 17.4 15 Noroeste 26 Oeste 0 850.2 -- 51
2020-07-02 10:00:00 14.8 18 Noroeste 26 Oeste 0 850.1 -- 60
2020-07-02 09:00:00 12.7 17 Noroeste 24 Noroeste 0 849.7 -- 70
2020-07-02 08:00:00 11 17 Noroeste 23 Noroeste 0 849.4 -- 75
2020-07-02 07:00:00 10.7 17 Noroeste 26 Oeste 0 849.4 -- 75
2020-07-02 06:00:00 11.5 19 Noroeste 26 Noroeste 0 849.3 -- 71
2020-07-02 05:00:00 12 18 Noroeste 34 Oeste 0 849.1 -- 63
2020-07-02 04:00:00 13.4 22 Oeste 36 Oeste 0 849.4 -- 54
2020-07-02 03:00:00 14.4 26 Noroeste 38 Oeste 0 849.8 -- 46
2020-07-02 02:00:00 15.4 27 Noroeste 39 Oeste 0 850 -- 40
2020-07-02 01:00:00 16.3 27 Noroeste 37 Noroeste 0 850 -- 36
2020-07-02 00:00:00 17.6 26 Noroeste 36 Noroeste 0 850 -- 33
2020-07-01 23:00:00 18.5 24 Noroeste 37 Noroeste 0 849.8 -- 30
2020-07-01 22:00:00 20.6 23 Noroeste 33 Noroeste 0 849.3 -- 26
2020-07-01 21:00:00 22.5 21 Noroeste 39 Noroeste 0 849.1 -- 24
2020-07-01 20:00:00 25 22 Noroeste 42 Noroeste 0 848.9 -- 21
2020-07-01 19:00:00 25.3 24 Noroeste 48 Noroeste 0 848.7 -- 20
2020-07-01 18:00:00 25.7 24 Noroeste 45 Noroeste 0 849 -- 21
2020-07-01 17:00:00 26.5 26 Noroeste 43 Noroeste 0 849.2 -- 21
2020-07-01 16:00:00 26.2 21 Noroeste 44 Noroeste 0 849.2 -- 22
2020-07-01 15:00:00 25.2 22 Noroeste 37 Noroeste 0 849.2 -- 26
2020-07-01 14:00:00 24.9 19 Noroeste 32 Noroeste 0 849.2 -- 31
2020-07-01 13:00:00 23.6 13 Noroeste 29 Noroeste 0 849.2 -- 35
2020-07-01 12:00:00 22 11 Noroeste 20 Noroeste 0 849.1 -- 39
2020-07-01 11:00:00 21 7 Noroeste 18 Noroeste 0 849.1 -- 43
2020-07-01 10:00:00 19.6 12 Noroeste 19 Noroeste 0 848.9 -- 49
2020-07-01 09:00:00 17.5 13 Noroeste 19 Noroeste 0 848.6 -- 50
2020-07-01 08:00:00 15.4 14 Noroeste 18 Oeste 0 848.2 -- 54
2020-07-01 07:00:00 15.3 10 Noroeste 14 Noroeste 0 848 -- 49
2020-07-01 06:00:00 16.5 7 Oeste 12 Noroeste 0 847.8 -- 47
2020-07-01 05:00:00 16.5 8 Noroeste 19 Oeste 0 847.9 -- 46
2020-07-01 04:00:00 16 13 Oeste 24 Noroeste 0 847.9 -- 45
2020-07-01 03:00:00 16.7 17 Noroeste 28 Oeste 0 848 -- 40
2020-07-01 02:00:00 18.3 22 Noroeste 32 Oeste 0 848.2 -- 35
2020-07-01 01:00:00 18.8 17 Noroeste 22 Noroeste 0 848.5 -- 33
2020-07-01 00:00:00 19.6 17 Noroeste 23 Noroeste 0 848.5 -- 32
2020-06-30 23:00:00 20.7 15 Oeste 30 Oeste 0 848.5 -- 28
2020-06-30 22:00:00 23.2 15 Oeste 33 Oeste 0 848 -- 24
2020-06-30 21:00:00 25.9 13 Oeste 27 Noroeste 0 847.6 -- 20
2020-06-30 20:00:00 27 18 Oeste 36 Sudoeste 0 847.6 -- 17
2020-06-30 19:00:00 28.1 16 Oeste 37 Oeste 0 847.4 -- 15
2020-06-30 18:00:00 28.9 15 Oeste 42 Oeste 0 847.8 -- 17
2020-06-30 17:00:00 28.2 12 Sudoeste 27 Sudoeste 0 848.3 -- 18
2020-06-30 16:00:00 28.6 8 Sur 38 Sudeste 0 848.6 -- 20
2020-06-30 15:00:00 25.6 12 Sudeste 28 Este 0 849 -- 25
2020-06-30 14:00:00 26.4 12 Sudeste 31 Sudeste 0 849.2 -- 26
2020-06-30 13:00:00 25.9 14 Sudeste 24 Este 0 849.4 -- 29
2020-06-30 12:00:00 24.5 12 Este 21 Este 0 849.5 -- 31
2020-06-30 11:00:00 23.4 8 Este 14 Este 0 849.5 -- 31
2020-06-30 10:00:00 21.9 9 Sudeste 19 Sudeste 0 849.6 -- 36
2020-06-30 09:00:00 19.7 12 Sudeste 20 Este 0 849.7 -- 39
2020-06-30 08:00:00 18.3 12 Este 19 Sudeste 0 849.5 -- 37
2020-06-30 07:00:00 19.2 13 Sudeste 21 Sudeste 0 849.3 -- 32
2020-06-30 06:00:00 18.4 11 Sudeste 15 Sudeste 0 849.3 -- 34
2020-06-30 05:00:00 18.6 7 Sudeste 14 Sudeste 0 849.3 -- 33
2020-06-30 04:00:00 18.8 8 Noroeste 11 Oeste 0 849.5 -- 31
2020-06-30 03:00:00 18.5 9 Oeste 14 Noroeste 0 849.9 -- 32
2020-06-30 02:00:00 18.8 10 Oeste 19 Oeste 0 850.4 -- 32
2020-06-30 01:00:00 18.8 13 Oeste 18 Oeste 0 850.5 -- 32
2020-06-30 00:00:00 19.7 12 Oeste 22 Noroeste 0 850.8 -- 30
2020-06-29 23:00:00 19.9 13 Noroeste 21 Noroeste 0 850.7 -- 30
2020-06-29 22:00:00 21.3 15 Noroeste 23 Noroeste 0 850.3 -- 27
2020-06-29 21:00:00 24.8 14 Noroeste 24 Noroeste 0 850.2 -- 22
2020-06-29 20:00:00 27.5 10 Noroeste 22 Noroeste 0 850.2 -- 19
2020-06-29 19:00:00 27.7 6 Este 18 Este 0 850.3 -- 13
2020-06-29 18:00:00 28.2 6 Nordeste 23 Este 0 850.5 -- 13
2020-06-29 17:00:00 28.3 2 Norte 18 Noroeste 0 851.1 -- 15
2020-06-29 16:00:00 28.1 5 Oeste 20 Sudeste 0 851.3 -- 17
2020-06-29 15:00:00 26.4 6 Nordeste 24 Este 0 851.5 -- 21
2020-06-29 14:00:00 24.3 10 Este 27 Este 0 852.1 -- 25
2020-06-29 13:00:00 24.3 12 Este 25 Sudeste 0 852.2 -- 28
2020-06-29 12:00:00 23.7 12 Este 22 Este 0 852.4 -- 32
2020-06-29 11:00:00 22.1 8 Este 22 Este 0 852.5 -- 35
2020-06-29 10:00:00 21 13 Este 22 Este 0 852.2 -- 36
2020-06-29 09:00:00 19.7 12 Sudeste 19 Este 0 852.4 -- 39
2020-06-29 08:00:00 15.1 3 Oeste 13 Oeste 0 852.2 -- 62
2020-06-29 07:00:00 12.4 12 Oeste 15 Oeste 0 851.9 -- 74
2020-06-29 06:00:00 12.8 13 Oeste 20 Noroeste 0 852 -- 73
2020-06-29 05:00:00 12.6 17 Noroeste 23 Oeste 0 852 -- 71
2020-06-29 04:00:00 13.5 19 Noroeste 32 Noroeste 0 852.1 -- 65
2020-06-29 03:00:00 14.5 25 Noroeste 37 Oeste 0 852.4 -- 57
2020-06-29 02:00:00 15.7 27 Oeste 37 Noroeste 0 852.7 -- 50
2020-06-29 01:00:00 16.6 26 Noroeste 36 Oeste 0 853.1 -- 40
2020-06-29 00:00:00 18.1 23 Noroeste 34 Oeste 0 853 -- 35
2020-06-28 23:00:00 18.3 18 Noroeste 24 Oeste 0 852.5 -- 34
2020-06-28 22:00:00 19.8 15 Noroeste 22 Noroeste 0 852.2 -- 30
2020-06-28 21:00:00 23.4 13 Noroeste 26 Noroeste 0 852.2 -- 25
2020-06-28 20:00:00 24.8 19 Noroeste 29 Noroeste 0 851.9 -- 22
2020-06-28 19:00:00 25.2 15 Noroeste 29 Noroeste 0 852.1 -- 23
2020-06-28 18:00:00 24.9 17 Noroeste 30 Noroeste 0 852.3 -- 24
2020-06-28 17:00:00 25.5 10 Oeste 28 Oeste 0 852.6 -- 27
2020-06-28 16:00:00 23.3 12 Noroeste 28 Oeste 0 852.8 -0.4 30
2020-06-28 15:00:00 22 7 Noroeste 18 Noroeste 0 852.7 -- 34
2020-06-28 14:00:00 21.9 3 Nordeste 13 Sudeste 0 853 -- 34
2020-06-28 13:00:00 21.3 6 Este 17 Este 0 853.2 -- 35
2020-06-28 12:00:00 21.7 4 Este 18 Este 0 853.1 -- 38
2020-06-28 11:00:00 18.5 6 Noroeste 12 Noroeste 0 853.1 -- 47
2020-06-28 10:00:00 17.3 3 Noroeste 11 Noroeste 0 852.9 -- 51
2020-06-28 09:00:00 14 4 Noroeste 14 Noroeste 0 852.6 -- 70
2020-06-28 08:00:00 12 10 Noroeste 14 Oeste 0 852.4 -- 78
2020-06-28 07:00:00 11.5 12 Oeste 24 Oeste 0 852.2 -- 78
2020-06-28 06:00:00 12.1 17 Oeste 26 Oeste 0 852.1 -- 75
2020-06-28 05:00:00 12.3 19 Oeste 28 Oeste 0 852 -- 71
2020-06-28 04:00:00 13 22 Oeste 35 Oeste 0 852.1 -- 64
2020-06-28 03:00:00 13.4 25 Oeste 39 Oeste 0 852.4 -- 60
2020-06-28 02:00:00 13.9 27 Noroeste 35 Noroeste 0 852.5 -- 56
2020-06-28 01:00:00 14.5 25 Noroeste 36 Noroeste 0 852.5 -- 53
2020-06-28 00:00:00 15.2 26 Noroeste 36 Noroeste 0 852.3 -- 50
2020-06-27 23:00:00 15.8 23 Noroeste 32 Noroeste 0 851.9 -- 46
2020-06-27 22:00:00 17.4 21 Noroeste 37 Oeste 0 851.5 -- 37
2020-06-27 21:00:00 20.3 25 Noroeste 36 Noroeste 0 851.2 -- 29
2020-06-27 20:00:00 21.7 22 Noroeste 37 Oeste 0 851.1 -- 26
2020-06-27 19:00:00 22.9 21 Noroeste 36 Noroeste 0 850.9 -- 25
2020-06-27 18:00:00 22.6 18 Noroeste 36 Noroeste 0 851.3 -- 26
2020-06-27 17:00:00 22.6 17 Noroeste 33 Noroeste 0 851.2 -- 26
2020-06-27 16:00:00 22.1 18 Noroeste 37 Oeste 0 851.2 -- 26
2020-06-27 15:00:00 21.6 16 Noroeste 32 Noroeste 0 851.2 -- 28
2020-06-27 14:00:00 21 19 Noroeste 32 Oeste 0 851.3 -- 31
2020-06-27 13:00:00 19.7 17 Noroeste 26 Oeste 0 851.4 -- 35
2020-06-27 12:00:00 17.9 13 Noroeste 22 Noroeste 0 851.2 -- 43
2020-06-27 11:00:00 16.5 10 Noroeste 18 Noroeste 0 851.1 -- 49
2020-06-27 10:00:00 14.4 10 Noroeste 13 Noroeste 0 851 -- 58
2020-06-27 09:00:00 12 5 Noroeste 14 Noroeste 0 850.6 -- 71
2020-06-27 08:00:00 10.4 11 Oeste 19 Oeste 0 850.5 -- 78
2020-06-27 07:00:00 9.9 17 Noroeste 34 Oeste 0 850.1 -- 79
2020-06-27 06:00:00 10.5 24 Oeste 36 Noroeste 0 850 -- 75
2020-06-27 05:00:00 10.9 26 Noroeste 37 Oeste 0 849.9 -- 72
2020-06-27 04:00:00 -- -- -- -- -- -- -- -- --
2020-06-27 03:00:00 -- -- -- -- -- -- -- -- --
2020-06-27 02:00:00 11.9 24 Noroeste 35 Noroeste 0 849.9 -- 50
2020-06-27 01:00:00 13 23 Noroeste 32 Oeste 0 849.8 -- 43
2020-06-27 00:00:00 13.8 23 Noroeste 40 Noroeste 0 849.9 -- 37
2020-06-26 23:00:00 14.9 28 Noroeste 46 Noroeste 0 849.4 -- 33
2020-06-26 22:00:00 16 27 Noroeste 37 Noroeste 0 848.6 -- 29
2020-06-26 21:00:00 18.7 26 Noroeste 39 Noroeste 0 848.6 -- 27
2020-06-26 20:00:00 19.6 21 Noroeste 33 Noroeste 0 848.3 -- 28
2020-06-26 19:00:00 21 17 Noroeste 27 Oeste 0 848.2 -- 25
2020-06-26 18:00:00 23.1 14 Oeste 29 Oeste 0 848.3 -- 17
2020-06-26 17:00:00 23.4 13 Oeste 27 Noroeste 0 848.5 -- 18
2020-06-26 16:00:00 22 9 Sudeste 26 Oeste 0 848.8 -- 20
2020-06-26 15:00:00 20.9 13 Sudoeste 31 Sur 0 849 -- 24
2020-06-26 14:00:00 20.3 13 Sudoeste 26 Sudoeste 0 849.2 -- 26
2020-06-26 13:00:00 20.7 9 Sudoeste 50 Sudoeste 0 849.1 -- 25
2020-06-26 12:00:00 20 0 Calma 21 Este 0 849.1 -- 42
2020-06-26 11:00:00 17.8 9 Este 20 Este 0 849.2 -- 46
2020-06-26 10:00:00 17.6 14 Sudeste 23 Este 0 849.1 -- 48
2020-06-26 09:00:00 16.4 13 Sudeste 19 Sudeste 0 848.9 -- 53
2020-06-26 08:00:00 14.1 10 Sudeste 16 Sudeste 0 848.9 -- 64
2020-06-26 07:00:00 13.4 10 Sudeste 20 Sudeste 0 848.8 -- 64
2020-06-26 06:00:00 14.2 12 Este 20 Este 0 848.7 -- 61
2020-06-26 05:00:00 14.8 12 Sudeste 19 Sudeste 0 848.9 -- 56
2020-06-26 04:00:00 15.6 11 Este 18 Sudeste 0 849 -- 47
2020-06-26 03:00:00 16.7 6 Sudeste 12 Sudeste 0 849 -- 44
2020-06-26 02:00:00 16.6 6 Este 14 Este 0 849.8 -- 43
2020-06-26 01:00:00 16.8 13 Noroeste 26 Noroeste 0 849.8 -- 41
2020-06-26 00:00:00 17.6 23 Noroeste 29 Noroeste 0 849.4 -- 38
2020-06-25 23:00:00 17.3 13 Noroeste 30 Noroeste 0 849.6 -- 38
2020-06-25 22:00:00 18.7 15 Noroeste 26 Oeste 0 849.2 -- 37
2020-06-25 21:00:00 21.4 17 Oeste 30 Oeste 0 848.7 -- 30
2020-06-25 20:00:00 22.8 12 Noroeste 22 Oeste 0 848.8 -- 30
2020-06-25 19:00:00 24 9 Noroeste 25 Oeste 0 848.8 -- 31
2020-06-25 18:00:00 21.6 18 Oeste 53 Noroeste 0 849.1 -- 34
2020-06-25 17:00:00 24.5 4 Sur 29 Sudeste 0 849.3 -- 28
2020-06-25 16:00:00 25 15 Sudeste 36 Este 0 849.5 -- 26
2020-06-25 15:00:00 25.6 17 Sudeste 32 Este 0 849.7 -- 29
2020-06-25 14:00:00 24.1 12 Este 23 Este 0 850.5 -- 33
2020-06-25 13:00:00 21.9 10 Este 19 Este 0 850.6 -- 36
2020-06-25 12:00:00 19.8 12 Este 24 Este 0 850.8 -- 42
2020-06-25 11:00:00 18.5 15 Sudeste 30 Este 0 850.5 -- 45
2020-06-25 10:00:00 17.8 19 Sudeste 31 Este 0 850.3 -- 48
2020-06-25 09:00:00 16.1 20 Sudeste 33 Este 0 850.2 -- 49
2020-06-25 08:00:00 15.7 22 Sudeste 33 Este 0 849.8 -- 49
2020-06-25 07:00:00 14.9 23 Este 39 Sudeste 0 849.9 -- 47
2020-06-25 06:00:00 15.9 25 Sudeste 42 Este 0 849.9 -- 43
2020-06-25 05:00:00 16.5 21 Sudeste 37 Sudeste 0 850.2 -- 40
2020-06-25 04:00:00 16.7 18 Este 33 Sudeste 0 850.5 -- 37
2020-06-25 03:00:00 18 17 Este 28 Este 0 851 -- 33
2020-06-25 02:00:00 18.8 17 Sudeste 28 Este 0 851.3 -- 31
2020-06-25 01:00:00 19.3 14 Este 26 Sudeste 0 851.7 -- 31
2020-06-25 00:00:00 19.3 10 Sudeste 18 Sudeste 0 851.9 -- 30
2020-06-24 23:00:00 19.2 8 Este 15 Este 0 851.9 -- 31
2020-06-24 22:00:00 19.1 8 Este 19 Este 0 851.6 -- 32
2020-06-24 21:00:00 20 13 Este 27 Este 0 851.4 -- 32
2020-06-24 20:00:00 21.4 14 Este 24 Este 0 851.1 -- 30
2020-06-24 19:00:00 22.6 14 Este 23 Este 0 851.3 -- 29
2020-06-24 18:00:00 22 14 Este 30 Este 0 851.6 -- 31
2020-06-24 17:00:00 21.9 21 Este 42 Este 0 851.8 -- 31
2020-06-24 16:00:00 23.1 22 Sudeste 44 Este 0 852 -- 31
2020-06-24 15:00:00 22.7 22 Sudeste 40 Este 0 852.1 -- 36
2020-06-24 14:00:00 20.2 13 Sudeste 36 Este 0 851.7 -- 42
2020-06-24 13:00:00 16.8 13 Este 26 Este 0.2 852 -- 57
2020-06-24 12:00:00 16.7 12 Sudeste 25 Sudeste 0.3 852.3 -- 48
2020-06-24 11:00:00 19.9 6 Este 15 Este 0 852 -- 34
2020-06-24 10:00:00 21.1 2 Noroeste 22 Noroeste 0 851.2 -- 30
2020-06-24 09:00:00 17.8 8 Noroeste 17 Sudeste 0 852 -- 41
2020-06-24 08:00:00 18.4 15 Sudeste 27 Sudeste 0 851.5 -- 37
2020-06-24 07:00:00 17.6 18 Sudeste 31 Sudeste 0 850.9 -- 37
2020-06-24 06:00:00 17.8 17 Sudeste 27 Sudeste 0 850.7 -- 36
2020-06-24 05:00:00 18.3 14 Sudeste 28 Este 0 850.8 -- 36
2020-06-24 04:00:00 18.9 18 Este 31 Este 0 851 -- 34
2020-06-24 03:00:00 19.2 15 Sudeste 34 Este 0 851.5 -- 29
2020-06-24 02:00:00 19.5 16 Sudeste 42 Sudeste 0 851.8 -- 26
2020-06-24 01:00:00 21.5 8 Sudeste 15 Sudoeste 0 851.8 -- 24
2020-06-24 00:00:00 22.3 9 Sudoeste 13 Sudoeste 0 851.6 -- 23
2020-06-23 23:00:00 21.2 4 Oeste 13 Sudoeste 0 851.8 -- 24
2020-06-23 22:00:00 20.8 8 Noroeste 24 Noroeste 0 851.3 -- 25
2020-06-23 21:00:00 22.7 13 Oeste 21 Oeste 0 850.9 -- 22
2020-06-23 20:00:00 26.1 9 Sudeste 19 Sudeste 0 850.7 -- 19
2020-06-23 19:00:00 25.9 5 Sudeste 21 Sudeste 0 850.7 -- 19
2020-06-23 18:00:00 25.5 10 Este 28 Sudeste 0 851 -- 20
2020-06-23 17:00:00 27.6 12 Sudeste 30 Sudeste 0 851.3 -- 21
2020-06-23 16:00:00 25.7 14 Este 26 Sudeste 0 851.5 -- 22
2020-06-23 15:00:00 26.6 12 Este 27 Este 0 852 -- 26
2020-06-23 14:00:00 25.7 13 Este 27 Este 0 852.5 -- 31
2020-06-23 13:00:00 23.2 15 Sudeste 24 Sudeste 0 852.5 -- 32
2020-06-23 12:00:00 22.4 13 Sudeste 26 Sudeste 0 852.6 -- 34
2020-06-23 11:00:00 21 16 Sudeste 25 Este 0 852.7 -- 35
2020-06-23 10:00:00 20 16 Sudeste 24 Este 0 852.8 -- 39
2020-06-23 09:00:00 18.7 17 Sudeste 23 Sudeste 0 852.7 -- 39
2020-06-23 08:00:00 17.2 15 Sudeste 22 Este 0 852.6 -- 40
2020-06-23 07:00:00 16.4 13 Sudeste 20 Sudeste 0 852.6 -- 39
2020-06-23 06:00:00 17 13 Sudeste 22 Este 0 852.5 -- 37
2020-06-23 05:00:00 17 15 Sudeste 26 Sudeste 0 852.5 -- 35
2020-06-23 04:00:00 18 15 Sudeste 30 Este 0 853 -- 30
2020-06-23 03:00:00 18.5 18 Este 32 Este 0 853.5 -- 28
2020-06-23 02:00:00 19.4 14 Sudeste 22 Este 0 853.4 -- 25
2020-06-23 01:00:00 19.8 9 Sudeste 18 Este 0 853.7 -- 26
2020-06-23 00:00:00 20.4 6 Este 11 Este 0 853.8 -- 25
2020-06-22 23:00:00 21.4 6 Sudeste 12 Sudeste 0 853.7 -- 22
2020-06-22 22:00:00 22.4 6 Sur 10 Sudeste 0 853.3 -- 21
2020-06-22 21:00:00 24.4 7 Sur 12 Sur 0 853.2 -- 20
2020-06-22 20:00:00 25.6 6 Sudeste 11 Sudeste 0 853.2 -- 20
2020-06-22 19:00:00 26.5 5 Sudeste 16 Este 0 853.6 -- 20
2020-06-22 18:00:00 26.3 5 Este 17 Este 0 853.9 -- 19
2020-06-22 17:00:00 25.3 5 Sur 20 Sur 0 854.6 -- 20
2020-06-22 16:00:00 24.3 10 Este 23 Este 0 855.3 -- 21
2020-06-22 15:00:00 24.5 8 Este 20 Este 0 855.8 -- 23
2020-06-22 14:00:00 23.7 11 Este 23 Este 0 856.3 -- 24
2020-06-22 13:00:00 22.6 10 Sudeste 27 Este 0 856.5 -- 27
2020-06-22 12:00:00 21.7 12 Sudeste 24 Este 0 856.6 -- 30
2020-06-22 11:00:00 20.7 13 Este 27 Sudeste 0 856.5 -- 31
2020-06-22 10:00:00 19.5 13 Este 24 Sudeste 0 856.8 -- 33
2020-06-22 09:00:00 17.8 13 Sudeste 20 Sudeste 0 856.8 -- 35
2020-06-22 08:00:00 16 12 Sudeste 19 Sudeste 0 856.7 -- 38
2020-06-22 07:00:00 14.2 15 Sudeste 23 Sudeste 0 856.5 -- 40
2020-06-22 06:00:00 14.9 11 Sudeste 16 Sudeste 0 856.3 -- 33
2020-06-22 05:00:00 15.6 0 Calma 9 Noroeste 0 856.6 -- 25
2020-06-22 04:00:00 16 5 Oeste 8 Noroeste 0 856.6 -- 24
2020-06-22 03:00:00 16.3 6 Oeste 9 Noroeste 0 857 -- 24
2020-06-22 02:00:00 16.7 5 Noroeste 26 Noroeste 0 857.3 -- 24
2020-06-22 01:00:00 16.2 18 Noroeste 25 Noroeste 0 857.3 -- 25
2020-06-22 00:00:00 17.2 18 Noroeste 27 Oeste 0 857.3 -- 24
2020-06-21 23:00:00 17.6 19 Noroeste 29 Oeste 0 857.1 -- 22
2020-06-21 22:00:00 17.9 17 Noroeste 27 Oeste 0 856.5 -- 20
2020-06-21 21:00:00 22.1 17 Noroeste 28 Noroeste 0 856.3 -- 18
2020-06-21 20:00:00 23.6 17 Noroeste 33 Noroeste 0 856.1 -- 17
2020-06-21 19:00:00 23.6 19 Noroeste 32 Noroeste 0 856.1 -- 19
2020-06-21 18:00:00 24.5 13 Noroeste 32 Noroeste 0 856.5 -- 21
2020-06-21 17:00:00 23.4 20 Noroeste 33 Noroeste 0 856.5 -- 21
2020-06-21 16:00:00 23.4 17 Noroeste 32 Noroeste 0 856.9 -- 23
2020-06-21 15:00:00 22.1 19 Noroeste 31 Noroeste 0 857.1 -- 25
2020-06-21 14:00:00 22.1 14 Noroeste 28 Noroeste 0 857.3 -- 29
2020-06-21 13:00:00 21.3 14 Noroeste 24 Noroeste 0 857.2 -- 32
2020-06-21 12:00:00 19 14 Noroeste 22 Oeste 0 857.1 -- 38
2020-06-21 11:00:00 17.8 9 Noroeste 15 Noroeste 0 856.8 -- 40
2020-06-21 10:00:00 15.2 9 Noroeste 18 Noroeste 0 856.9 -- 50
2020-06-21 09:00:00 12.7 13 Noroeste 20 Oeste 0 856.8 -- 56
2020-06-21 08:00:00 11.2 13 Oeste 20 Noroeste 0 856.1 -- 60
2020-06-21 07:00:00 10 17 Noroeste 29 Noroeste 0 855.8 -- 60
2020-06-21 06:00:00 11 22 Noroeste 29 Oeste 0 855.7 -- 49
2020-06-21 05:00:00 12.2 22 Oeste 33 Oeste 0 855.8 -- 39
2020-06-21 04:00:00 12.7 23 Oeste 32 Oeste 0 855.9 -- 36
2020-06-21 03:00:00 13 24 Noroeste 34 Oeste 0 856.2 -- 35
2020-06-21 02:00:00 14.6 23 Noroeste 33 Noroeste 0 856.3 -- 32
2020-06-21 01:00:00 15.3 23 Noroeste 33 Oeste 0 856.4 -- 30
2020-06-21 00:00:00 15.6 22 Noroeste 30 Oeste 0 856.4 -- 31
2020-06-20 23:00:00 16.6 19 Noroeste 26 Oeste 0 855.8 -- 29
2020-06-20 22:00:00 18.4 19 Noroeste 30 Noroeste 0 855.2 -- 25
2020-06-20 21:00:00 21.5 18 Noroeste 31 Noroeste 0 854.9 -- 21
2020-06-20 20:00:00 23.1 19 Noroeste 35 Oeste 0 854.5 -- 19
2020-06-20 19:00:00 23.2 10 Noroeste 26 Noroeste 0 854.4 -- 22
2020-06-20 18:00:00 23.8 11 Noroeste 21 Noroeste 0 854.6 -- 20
2020-06-20 17:00:00 23.5 3 Norte 13 Este 0 854.8 -- 21
2020-06-20 16:00:00 21.6 5 Este 12 Sudeste 0 855.1 -- 25
2020-06-20 15:00:00 21 3 Sudeste 15 Sur 0 855.1 -- 26
2020-06-20 14:00:00 21.7 5 Sudeste 23 Sudeste 0 855.1 -- 25
2020-06-20 13:00:00 20 9 Sudeste 19 Sur 0 855.1 -- 28
2020-06-20 12:00:00 20.2 5 Sudeste 19 Este 0 855.1 -- 28
2020-06-20 11:00:00 18.2 8 Este 16 Nordeste 0 854.8 -- 30
2020-06-20 10:00:00 15.9 0 Calma 8 Noroeste 0 854.7 -- 34
2020-06-20 09:00:00 13.7 6 Noroeste 12 Oeste 0 854.5 -- 43
2020-06-20 08:00:00 11.7 8 Oeste 14 Oeste 0 854 -- 46
2020-06-20 07:00:00 9.6 12 Noroeste 14 Noroeste 0 853.7 -- 49
2020-06-20 06:00:00 9.3 14 Noroeste 23 Oeste 0 853.6 -- 46
2020-06-20 05:00:00 10.2 20 Noroeste 28 Oeste 0 853.4 -- 40
2020-06-20 04:00:00 11.3 22 Noroeste 29 Oeste 0 853.4 -- 35
2020-06-20 03:00:00 12.2 20 Noroeste 29 Oeste 0 853.7 -- 33
2020-06-20 02:00:00 12.7 22 Oeste 31 Oeste 0 853.9 -- 29
2020-06-20 01:00:00 13.5 22 Noroeste 30 Noroeste 0 853.9 -- 28
2020-06-20 00:00:00 13.7 20 Noroeste 27 Oeste 0 853.8 -- 26
2020-06-19 23:00:00 14.2 18 Noroeste 25 Noroeste 0 853.2 -- 26
2020-06-19 22:00:00 15.8 18 Noroeste 50 Noroeste 0 852.4 -- 24
2020-06-19 21:00:00 19.3 16 Noroeste 33 Oeste 0 852.1 -- 22
2020-06-19 20:00:00 20.6 17 Noroeste 28 Noroeste 0 851.5 -- 22
2020-06-19 19:00:00 21.6 16 Noroeste 29 Noroeste 0 851.4 -- 22
2020-06-19 18:00:00 20.3 16 Noroeste 29 Oeste 0 851.2 -- 24
2020-06-19 17:00:00 20.9 13 Noroeste 24 Oeste 0 851.5 -- 24
2020-06-19 16:00:00 21.7 8 Noroeste 23 Noroeste 0 851.4 -- 24
2020-06-19 15:00:00 19.8 5 Noroeste 18 Este 0 851.4 -- 27
2020-06-19 14:00:00 18.5 9 Este 20 Este 0 851.3 -- 35
2020-06-19 13:00:00 16.6 8 Este 17 Nordeste 0 851.4 -- 41
2020-06-19 12:00:00 15.5 5 Este 18 Este 0 851.1 -- 42
2020-06-19 11:00:00 15.9 9 Este 19 Este 0 850.6 -- 42
2020-06-19 10:00:00 14.9 8 Sudeste 14 Sudeste 0 850.6 -- 41
2020-06-19 09:00:00 12.7 4 Noroeste 8 Oeste 0 850.4 -- 39
2020-06-19 08:00:00 11 6 Oeste 8 Oeste 0 850.2 -- 42
2020-06-19 07:00:00 9.4 7 Oeste 11 Oeste 0 849.7 -- 46
2020-06-19 06:00:00 8.5 9 Oeste 17 Noroeste 0 849.4 -- 50
2020-06-19 05:00:00 8.5 15 Noroeste 24 Noroeste 0 849.3 -- 48
2020-06-19 04:00:00 9.1 18 Noroeste 27 Noroeste 0 849 -- 47
2020-06-19 03:00:00 9.9 20 Noroeste 29 Noroeste 0 848.8 -- 47
2020-06-19 02:00:00 10.7 17 Noroeste 24 Oeste 0 849 -- 43
2020-06-19 01:00:00 11.5 17 Noroeste 24 Oeste 0 849.3 -- 42
2020-06-19 00:00:00 12.3 14 Noroeste 29 Oeste 0 849.2 -- 42
2020-06-18 23:00:00 12.9 17 Noroeste 26 Oeste 0 848.7 -- 40
2020-06-18 22:00:00 13.3 11 Noroeste 26 Noroeste 0 848.2 -- 39
2020-06-18 21:00:00 14.9 17 Noroeste 30 Noroeste 0 847.7 -- 34
2020-06-18 20:00:00 18.2 20 Noroeste 30 Noroeste 0 847.2 -- 29
2020-06-18 19:00:00 19.8 15 Noroeste 36 Noroeste 0 846.9 -- 28
2020-06-18 18:00:00 18.6 15 Noroeste 25 Noroeste 0 846.9 -- 29
2020-06-18 17:00:00 17.1 13 Noroeste 21 Noroeste 0 847.1 -- 32
2020-06-18 16:00:00 19 5 Oeste 22 Oeste 0 847.1 -- 31
2020-06-18 15:00:00 17 8 Noroeste 22 Oeste 0 847.3 -- 35
2020-06-18 14:00:00 17.2 8 Noroeste 21 Noroeste 0 847.3 -- 35
2020-06-18 13:00:00 16.6 3 Noroeste 17 Noroeste 0 847.3 -- 37
2020-06-18 12:00:00 14.8 9 Noroeste 16 Noroeste 0 847.2 -- 39
2020-06-18 11:00:00 13.7 5 Oeste 14 Noroeste 0 847 -- 42
2020-06-18 10:00:00 11.9 8 Noroeste 17 Noroeste 0 847.1 -- 48
2020-06-18 09:00:00 9.9 13 Noroeste 20 Oeste 0 846.7 -- 54
2020-06-18 08:00:00 7.6 14 Noroeste 18 Noroeste 0 846.5 -- 60
2020-06-18 07:00:00 6.4 14 Noroeste 18 Noroeste 0 846.1 -- 62
2020-06-18 06:00:00 6.8 15 Noroeste 21 Noroeste 0 846 -- 57
2020-06-18 05:00:00 7.3 15 Noroeste 20 Noroeste 0 846.1 -- 51
2020-06-18 04:00:00 8.6 15 Noroeste 19 Noroeste 0 846.4 -- 43
2020-06-18 03:00:00 9.9 11 Noroeste 20 Oeste 0 846.8 -- 40
2020-06-18 02:00:00 10.6 15 Oeste 22 Oeste 0 847.1 -- 39
2020-06-18 01:00:00 10.3 14 Oeste 20 Oeste 0 847.6 -- 40
2020-06-18 00:00:00 10.7 10 Oeste 14 Oeste 0 847.9 -- 38
2020-06-17 23:00:00 10.6 6 Noroeste 12 Oeste 0 847.9 -- 38
2020-06-17 22:00:00 11.2 9 Noroeste 21 Noroeste 0 847.4 -- 36
2020-06-17 21:00:00 14.7 17 Noroeste 24 Noroeste 0 847 -- 27
2020-06-17 20:00:00 16.4 17 Noroeste 31 Noroeste 0 847 -- 26
2020-06-17 19:00:00 16.5 18 Noroeste 29 Noroeste 0 847.2 -- 25
2020-06-17 18:00:00 16.6 12 Noroeste 29 Oeste 0 847.6 -- 25
2020-06-17 17:00:00 17.1 10 Noroeste 30 Noroeste 0 847.8 -- 26
2020-06-17 16:00:00 16.1 18 Noroeste 28 Noroeste 0 848.1 -- 27
2020-06-17 15:00:00 14 15 Noroeste 29 Oeste 0 848.3 -- 29
2020-06-17 14:00:00 14.1 15 Noroeste 27 Oeste 0 848.8 -- 32
2020-06-17 13:00:00 13.5 16 Noroeste 31 Noroeste 0 848.9 -- 35
2020-06-17 12:00:00 11.6 14 Noroeste 26 Oeste 0 848.8 -- 42
2020-06-17 11:00:00 10.5 15 Oeste 24 Oeste 0 848.9 -- 48
2020-06-17 10:00:00 8.7 12 Oeste 25 Oeste 0 848.9 -- 59
2020-06-17 09:00:00 6.4 18 Noroeste 28 Oeste 0 848.8 -- 74
2020-06-17 08:00:00 5.4 21 Noroeste 31 Noroeste 0 848.6 -- 81
2020-06-17 07:00:00 4.9 21 Oeste 36 Oeste 0 848.4 -- 81
2020-06-17 06:00:00 4.9 27 Noroeste 38 Oeste 0 848 -- 77
2020-06-17 05:00:00 5.7 27 Noroeste 37 Oeste 0 848.1 -- 73
2020-06-17 04:00:00 6.1 24 Noroeste 39 Noroeste 0 848.7 -- 70
2020-06-17 03:00:00 6.9 29 Noroeste 41 Noroeste 0 849.1 -- 67
2020-06-17 02:00:00 7.5 25 Noroeste 43 Noroeste 0 849.5 -- 62
2020-06-17 01:00:00 8.4 28 Noroeste 42 Noroeste 0 849.9 -- 55
2020-06-17 00:00:00 9.1 29 Noroeste 45 Noroeste 0 850.1 -- 48
2020-06-16 23:00:00 10.7 32 Noroeste 48 Noroeste 0 850.1 -- 40
2020-06-16 22:00:00 11.9 28 Noroeste 50 Noroeste 0 849.8 -- 39
2020-06-16 21:00:00 12.3 29 Noroeste 55 Oeste 0 849.6 -- 39
2020-06-16 20:00:00 14.2 33 Noroeste 55 Noroeste 0 849.3 -- 36
2020-06-16 19:00:00 13.6 26 Noroeste 59 Noroeste 0 849.4 -- 39
2020-06-16 18:00:00 13.3 33 Noroeste 57 Oeste 0 849.5 -- 39
2020-06-16 17:00:00 13.5 30 Noroeste 54 Noroeste 0 850 -- 34
2020-06-16 16:00:00 15.2 23 Noroeste 38 Oeste 0 850.5 -- 32
2020-06-16 15:00:00 14.4 26 Noroeste 40 Noroeste 0 850.8 -- 33
2020-06-16 14:00:00 14.1 26 Noroeste 41 Noroeste 0 850.9 -- 36
2020-06-16 13:00:00 12.6 21 Noroeste 46 Noroeste 0 851.2 -- 42
2020-06-16 12:00:00 11.1 27 Noroeste 44 Noroeste 0 851 -- 47
2020-06-16 11:00:00 8.8 28 Noroeste 43 Noroeste 0 851 -- 61
2020-06-16 10:00:00 7.6 25 Noroeste 44 Noroeste 0 851 -- 80
2020-06-16 09:00:00 6.8 29 Noroeste 44 Noroeste 0 850.9 -- 82
2020-06-16 08:00:00 7 27 Noroeste 42 Noroeste 0 850.9 -- 81
2020-06-16 07:00:00 6.9 24 Noroeste 36 Noroeste 0 850.8 -- 79
2020-06-16 06:00:00 6.9 22 Noroeste 33 Oeste 0 851.2 -- 78
2020-06-16 05:00:00 6.9 25 Noroeste 36 Noroeste 0 851.1 -- 75
2020-06-16 04:00:00 7.6 25 Noroeste 42 Oeste 0 851.4 -- 70
2020-06-16 03:00:00 7.9 27 Noroeste 40 Noroeste 0 851.9 -- 67
2020-06-16 02:00:00 8.6 27 Noroeste 38 Noroeste 0 852.4 -- 64
2020-06-16 01:00:00 9 30 Noroeste 43 Oeste 0 852.6 -- 63
2020-06-16 00:00:00 9.6 30 Noroeste 48 Noroeste 0 852.8 -- 59
2020-06-15 23:00:00 10.9 27 Noroeste 41 Noroeste 0 852.8 -- 49
2020-06-15 22:00:00 12.5 25 Noroeste 40 Noroeste 0 852.5 -- 42
2020-06-15 21:00:00 13.6 25 Noroeste 41 Noroeste 0 852.5 -- 39
2020-06-15 20:00:00 14.6 24 Noroeste 38 Noroeste 0 852.1 -- 36
2020-06-15 19:00:00 16.3 15 Noroeste 32 Noroeste 0 852.3 -- 33
2020-06-15 18:00:00 16 18 Noroeste 32 Noroeste 0 852.4 -- 33
2020-06-15 17:00:00 17.7 20 Noroeste 32 Noroeste 0 852.6 -- 32
2020-06-15 16:00:00 16.9 18 Oeste 29 Noroeste 0 852.9 -- 36
2020-06-15 15:00:00 16.7 15 Noroeste 26 Noroeste 0 852.9 -- 41
2020-06-15 14:00:00 15 13 Noroeste 25 Noroeste 0 853.4 -- 44
2020-06-15 13:00:00 13.6 14 Noroeste 26 Oeste 0 853.5 -- 48
2020-06-15 12:00:00 12.8 14 Noroeste 25 Noroeste 0 853.3 -- 52
2020-06-15 11:00:00 11.6 12 Noroeste 24 Noroeste 0 853.2 -- 57
2020-06-15 10:00:00 10.6 8 Noroeste 14 Noroeste 0 853.1 -- 61
2020-06-15 09:00:00 8.3 10 Noroeste 15 Oeste 0 852.9 -- 72
2020-06-15 08:00:00 7.5 9 Noroeste 15 Noroeste 0 852.7 -- 75
2020-06-15 07:00:00 7 12 Noroeste 18 Oeste 0 852.6 -- 74
2020-06-15 06:00:00 7 14 Noroeste 18 Oeste 0 852.5 -- 73
2020-06-15 05:00:00 7.6 14 Oeste 23 Noroeste 0 852.3 -- 70
2020-06-15 04:00:00 7.8 19 Oeste 30 Noroeste 0 852.5 -- 66
2020-06-15 03:00:00 8.2 23 Oeste 39 Noroeste 0 852.7 -- 62
2020-06-15 02:00:00 8.7 27 Oeste 39 Oeste 0 852.9 -- 57
2020-06-15 01:00:00 9.4 29 Noroeste 41 Oeste 0 852.9 -- 52
2020-06-15 00:00:00 9.9 24 Noroeste 38 Noroeste 0 853 -- 48